sensor_id;sensor_type;location;lat;lon;timestamp;P1;durP1;ratioP1;P2;durP2;ratioP2
40248;SDS011;25969;49.970;11.062;2023-03-23T05:06:54;2.08;;;0.98;;
40248;SDS011;25969;49.970;11.062;2023-03-23T05:17:00;1.15;;;0.70;;
40248;SDS011;25969;49.970;11.062;2023-03-23T05:27:01;1.77;;;0.73;;
40248;SDS011;25969;49.970;11.062;2023-03-23T05:37:07;5.05;;;1.08;;
40248;SDS011;25969;49.970;11.062;2023-03-23T05:47:20;1.58;;;0.88;;
40248;SDS011;25969;49.970;11.062;2023-03-23T05:57:28;4.22;;;1.15;;
40248;SDS011;25969;49.970;11.062;2023-03-23T06:07:38;3.03;;;0.80;;
40248;SDS011;25969;49.970;11.062;2023-03-23T06:17:39;1.90;;;1.10;;
40248;SDS011;25969;49.970;11.062;2023-03-23T06:27:40;3.60;;;1.10;;
40248;SDS011;25969;49.970;11.062;2023-03-23T06:47:54;1.40;;;0.87;;
40248;SDS011;25969;49.970;11.062;2023-03-23T06:57:56;2.30;;;1.10;;
40248;SDS011;25969;49.970;11.062;2023-03-23T07:07:57;2.97;;;1.17;;
40248;SDS011;25969;49.970;11.062;2023-03-23T07:18:15;2.35;;;1.15;;
40248;SDS011;25969;49.970;11.062;2023-03-23T07:28:20;1.88;;;1.23;;
40248;SDS011;25969;49.970;11.062;2023-03-23T07:38:22;3.22;;;1.10;;
40248;SDS011;25969;49.970;11.062;2023-03-23T07:48:26;3.53;;;1.00;;
40248;SDS011;25969;49.970;11.062;2023-03-23T07:58:27;2.70;;;1.77;;
40248;SDS011;25969;49.970;11.062;2023-03-23T08:08:29;1.48;;;1.02;;
40248;SDS011;25969;49.970;11.062;2023-03-23T08:19:00;4.50;;;1.25;;
40248;SDS011;25969;49.970;11.062;2023-03-23T08:29:21;5.07;;;1.30;;
40248;SDS011;25969;49.970;11.062;2023-03-23T08:39:40;4.90;;;1.42;;
40248;SDS011;25969;49.970;11.062;2023-03-23T08:50:14;1.90;;;1.02;;
40248;SDS011;25969;49.970;11.062;2023-03-23T09:00:48;3.15;;;1.88;;
40248;SDS011;25969;49.970;11.062;2023-03-23T09:11:03;4.22;;;1.55;;
40248;SDS011;25969;49.970;11.062;2023-03-23T09:21:07;3.80;;;1.33;;
40248;SDS011;25969;49.970;11.062;2023-03-23T09:31:08;3.37;;;1.20;;
40248;SDS011;25969;49.970;11.062;2023-03-23T09:51:41;2.80;;;1.33;;
40248;SDS011;25969;49.970;11.062;2023-03-23T10:01:47;2.38;;;1.35;;
40248;SDS011;25969;49.970;11.062;2023-03-23T10:11:54;3.63;;;1.33;;
40248;SDS011;25969;49.970;11.062;2023-03-23T10:22:04;3.50;;;1.30;;
40248;SDS011;25969;49.970;11.062;2023-03-23T10:32:11;5.03;;;1.33;;
40248;SDS011;25969;49.970;11.062;2023-03-23T10:42:28;3.45;;;1.30;;
40248;SDS011;25969;49.970;11.062;2023-03-23T10:52:38;2.05;;;0.88;;
40248;SDS011;25969;49.970;11.062;2023-03-23T11:02:42;0.70;;;0.45;;
40248;SDS011;25969;49.970;11.062;2023-03-23T11:12:45;2.00;;;0.80;;
40248;SDS011;25969;49.970;11.062;2023-03-23T11:22:46;1.27;;;0.70;;
40248;SDS011;25969;49.970;11.062;2023-03-23T11:32:47;3.63;;;0.70;;
40248;SDS011;25969;49.970;11.062;2023-03-23T11:53:15;1.88;;;0.80;;
40248;SDS011;25969;49.970;11.062;2023-03-23T12:03:39;0.85;;;0.50;;
40248;SDS011;25969;49.970;11.062;2023-03-23T12:35:11;1.65;;;0.70;;
40248;SDS011;25969;49.970;11.062;2023-03-23T12:45:21;1.45;;;0.60;;
40248;SDS011;25969;49.970;11.062;2023-03-23T12:55:49;1.55;;;0.70;;
40248;SDS011;25969;49.970;11.062;2023-03-23T13:16:45;2.28;;;1.58;;
40248;SDS011;25969;49.970;11.062;2023-03-23T13:26:43;3.93;;;1.13;;
40248;SDS011;25969;49.970;11.062;2023-03-23T13:36:55;1.80;;;1.20;;
40248;SDS011;25969;49.970;11.062;2023-03-23T13:47:07;1.45;;;1.10;;
40248;SDS011;25969;49.970;11.062;2023-03-23T13:57:38;6.35;;;1.70;;
40248;SDS011;25969;49.970;11.062;2023-03-23T14:18:03;2.55;;;0.95;;
40248;SDS011;25969;49.970;11.062;2023-03-23T14:28:05;0.80;;;0.70;;
40248;SDS011;25969;49.970;11.062;2023-03-23T14:38:19;1.98;;;0.57;;
40248;SDS011;25969;49.970;11.062;2023-03-23T14:48:24;0.60;;;0.57;;
40248;SDS011;25969;49.970;11.062;2023-03-23T14:58:26;2.42;;;0.50;;
40248;SDS011;25969;49.970;11.062;2023-03-23T15:08:27;0.70;;;0.50;;
40248;SDS011;25969;49.970;11.062;2023-03-23T15:18:32;5.07;;;0.55;;
40248;SDS011;25969;49.970;11.062;2023-03-23T15:28:39;1.13;;;0.80;;
40248;SDS011;25969;49.970;11.062;2023-03-23T15:38:42;0.57;;;0.40;;
40248;SDS011;25969;49.970;11.062;2023-03-23T15:48:50;3.08;;;1.80;;
40248;SDS011;25969;49.970;11.062;2023-03-23T15:58:54;2.38;;;1.48;;
40248;SDS011;25969;49.970;11.062;2023-03-23T16:08:58;1.58;;;0.90;;
40248;SDS011;25969;49.970;11.062;2023-03-23T16:19:00;2.20;;;0.63;;
40248;SDS011;25969;49.970;11.062;2023-03-23T16:29:00;2.60;;;0.90;;
40248;SDS011;25969;49.970;11.062;2023-03-23T16:39:02;1.98;;;0.70;;
40248;SDS011;25969;49.970;11.062;2023-03-23T16:49:03;1.47;;;0.70;;
40248;SDS011;25969;49.970;11.062;2023-03-23T16:59:04;3.03;;;1.00;;
40248;SDS011;25969;49.970;11.062;2023-03-23T17:09:05;1.47;;;0.87;;
40248;SDS011;25969;49.970;11.062;2023-03-23T17:29:07;1.67;;;0.82;;
40248;SDS011;25969;49.970;11.062;2023-03-23T17:39:08;1.77;;;0.87;;
40248;SDS011;25969;49.970;11.062;2023-03-23T17:49:09;2.67;;;1.03;;
40248;SDS011;25969;49.970;11.062;2023-03-23T17:59:10;1.83;;;1.10;;
40248;SDS011;25969;49.970;11.062;2023-03-23T18:09:11;1.85;;;1.15;;
40248;SDS011;25969;49.970;11.062;2023-03-23T18:29:14;4.00;;;1.20;;
40248;SDS011;25969;49.970;11.062;2023-03-23T18:39:15;2.67;;;1.57;;
40248;SDS011;25969;49.970;11.062;2023-03-23T18:49:16;2.27;;;1.13;;
40248;SDS011;25969;49.970;11.062;2023-03-23T18:59:17;3.20;;;1.83;;
40248;SDS011;25969;49.970;11.062;2023-03-23T19:09:17;2.63;;;1.70;;
40248;SDS011;25969;49.970;11.062;2023-03-23T19:19:18;2.70;;;1.77;;
40248;SDS011;25969;49.970;11.062;2023-03-23T19:29:19;3.83;;;2.23;;
40248;SDS011;25969;49.970;11.062;2023-03-23T19:39:20;8.00;;;2.30;;
40248;SDS011;25969;49.970;11.062;2023-03-23T19:49:21;4.90;;;2.67;;
40248;SDS011;25969;49.970;11.062;2023-03-23T19:59:22;5.83;;;2.60;;
40248;SDS011;25969;49.970;11.062;2023-03-23T20:09:23;5.70;;;2.40;;
40248;SDS011;25969;49.970;11.062;2023-03-23T20:19:24;3.33;;;2.20;;
40248;SDS011;25969;49.970;11.062;2023-03-23T20:29:25;3.35;;;2.45;;
40248;SDS011;25969;49.970;11.062;2023-03-23T20:39:27;4.13;;;2.47;;
40248;SDS011;25969;49.970;11.062;2023-03-23T20:49:30;5.63;;;2.63;;
40248;SDS011;25969;49.970;11.062;2023-03-23T20:59:32;4.20;;;2.47;;
40248;SDS011;25969;49.970;11.062;2023-03-23T21:09:34;4.13;;;2.80;;
40248;SDS011;25969;49.970;11.062;2023-03-23T21:19:35;6.07;;;3.60;;
40248;SDS011;25969;49.970;11.062;2023-03-23T21:29:35;4.03;;;2.53;;
40248;SDS011;25969;49.970;11.062;2023-03-23T21:39:37;3.53;;;2.35;;
40248;SDS011;25969;49.970;11.062;2023-03-23T21:49:38;9.77;;;2.17;;
40248;SDS011;25969;49.970;11.062;2023-03-23T21:59:39;3.90;;;2.00;;
40248;SDS011;25969;49.970;11.062;2023-03-23T22:09:40;3.00;;;2.00;;
40248;SDS011;25969;49.970;11.062;2023-03-23T22:19:43;3.03;;;1.63;;
40248;SDS011;25969;49.970;11.062;2023-03-23T22:29:44;5.53;;;1.70;;
40248;SDS011;25969;49.970;11.062;2023-03-23T22:39:45;3.60;;;2.23;;
40248;SDS011;25969;49.970;11.062;2023-03-23T22:49:46;3.57;;;2.00;;
